createdAt,value
2019-01-25T00:00:41.665Z,57.77
2019-01-25T00:03:11.662Z,59.23
2019-01-25T00:05:39.765Z,58.97
2019-01-25T00:08:08.179Z,61.73
2019-01-25T00:10:36.308Z,54.43
2019-01-25T00:13:04.653Z,56.40
2019-01-25T00:15:32.727Z,58.73
2019-01-25T00:18:00.849Z,57.73
2019-01-25T00:20:28.888Z,54.77
2019-01-25T00:22:57.096Z,54.13
2019-01-25T00:25:25.182Z,62.00
2019-01-25T00:27:53.448Z,54.47
2019-01-25T00:30:21.662Z,61.20
2019-01-25T00:32:49.728Z,60.50
2019-01-25T00:35:17.820Z,54.60
2019-01-25T00:37:45.976Z,55.97
2019-01-25T00:40:16.288Z,57.70
2019-01-25T00:42:44.555Z,59.30
2019-01-25T00:45:13.754Z,58.27
2019-01-25T00:47:42.103Z,56.10
2019-01-25T00:50:16.003Z,54.03
2019-01-25T00:52:44.363Z,54.17
2019-01-25T00:55:12.700Z,53.10
2019-01-25T00:57:40.964Z,55.23
2019-01-25T01:00:16.773Z,54.00
2019-01-25T01:02:45.039Z,56.17
2019-01-25T01:05:14.513Z,50.93
2019-01-25T01:07:42.655Z,53.77
2019-01-25T01:10:14.149Z,52.57
2019-01-25T01:12:41.504Z,59.63
2019-01-25T01:15:10.856Z,51.80
2019-01-25T01:17:39.088Z,54.03
2019-01-25T01:20:11.307Z,56.40
2019-01-25T01:22:40.022Z,53.60
2019-01-25T01:25:09.510Z,53.00
2019-01-25T01:27:37.858Z,58.70
2019-01-25T01:30:08.836Z,52.97
2019-01-25T01:32:36.824Z,55.90
2019-01-25T01:35:06.124Z,57.40
2019-01-25T01:37:34.337Z,50.37
2019-01-25T01:40:05.562Z,57.53
2019-01-25T01:42:33.659Z,54.40
2019-01-25T01:45:01.734Z,56.17
2019-01-25T01:47:29.973Z,54.80
2019-01-25T01:49:58.001Z,51.47
2019-01-25T01:52:26.040Z,52.27
2019-01-25T01:54:54.163Z,56.37
2019-01-25T01:57:22.306Z,54.73
2019-01-25T01:59:50.362Z,56.03
2019-01-25T02:02:18.567Z,52.03
2019-01-25T02:04:46.783Z,53.90
2019-01-25T02:07:14.904Z,54.17
2019-01-25T02:09:43.247Z,54.63
2019-01-25T02:12:11.547Z,61.00
2019-01-25T02:14:39.749Z,55.73
2019-01-25T02:17:07.870Z,56.43
2019-01-25T02:19:35.988Z,58.23
2019-01-25T02:22:04.160Z,58.23
2019-01-25T02:24:32.358Z,58.40
2019-01-25T02:27:00.481Z,58.97
2019-01-25T02:29:28.782Z,61.73
2019-01-25T02:31:56.935Z,55.30
2019-01-25T02:34:25.086Z,54.13
2019-01-25T02:36:53.197Z,55.70
2019-01-25T02:39:21.400Z,55.63
2019-01-25T02:41:49.819Z,61.20
2019-01-25T02:44:17.969Z,60.23
2019-01-25T02:46:46.072Z,53.87
2019-01-25T02:49:14.125Z,55.57
2019-01-25T02:51:42.356Z,54.63
2019-01-25T02:54:10.486Z,54.47
2019-01-25T02:56:38.692Z,56.07
2019-01-25T02:59:06.723Z,54.00
2019-01-25T03:01:34.790Z,58.43
2019-01-25T03:04:03.982Z,54.30
2019-01-25T03:06:32.160Z,54.90
2019-01-25T03:09:00.480Z,55.53
2019-01-25T03:11:28.771Z,59.37
2019-01-25T03:13:57.264Z,58.37
2019-01-25T03:16:25.573Z,53.07
2019-01-25T03:18:54.213Z,53.47
2019-01-25T03:21:22.294Z,57.87
2019-01-25T03:23:50.376Z,54.53
2019-01-25T03:26:18.589Z,54.47
2019-01-25T03:28:46.660Z,57.30
2019-01-25T03:31:14.841Z,56.63
2019-01-25T03:33:42.931Z,60.13
2019-01-25T03:36:11.089Z,58.03
2019-01-25T03:38:39.399Z,58.17
2019-01-25T03:41:07.493Z,57.57
2019-01-25T03:43:35.646Z,61.53
2019-01-25T03:46:04.646Z,62.00
2019-01-25T03:48:33.118Z,54.30
2019-01-25T03:51:01.153Z,56.93
2019-01-25T03:53:29.312Z,57.83
2019-01-25T03:55:57.462Z,54.40
2019-01-25T03:58:25.522Z,59.30
2019-01-25T04:00:53.649Z,56.53
2019-01-25T04:03:21.813Z,59.73
2019-01-25T04:05:50.412Z,57.10
2019-01-25T04:08:18.571Z,53.87
2019-01-25T04:10:46.775Z,59.17
2019-01-25T04:13:15.001Z,58.17
2019-01-25T04:15:43.142Z,59.13
2019-01-25T04:18:11.190Z,54.33
2019-01-25T04:20:39.248Z,57.60
2019-01-25T04:23:07.506Z,60.10
2019-01-25T04:25:35.583Z,59.83
2019-01-25T04:28:05.673Z,56.77
2019-01-25T04:30:33.861Z,64.33
2019-01-25T04:33:01.909Z,76.93
2019-01-25T04:35:29.943Z,87.50
2019-01-25T04:37:58.101Z,74.20
2019-01-25T04:40:26.353Z,107.67
2019-01-25T04:42:54.500Z,63.33
2019-01-25T04:45:22.661Z,63.47
2019-01-25T04:47:51.484Z,93.43
2019-01-25T04:50:22.234Z,103.27
2019-01-25T04:52:50.904Z,102.27
2019-01-25T04:55:28.576Z,114.33
2019-01-25T04:58:15.885Z,79.53
2019-01-25T05:00:44.141Z,63.93
2019-01-25T05:03:12.884Z,60.03
2019-01-25T05:05:41.190Z,63.07
2019-01-25T05:08:16.052Z,57.10
2019-01-25T05:10:44.638Z,58.70
2019-01-25T05:13:12.662Z,61.23
2019-01-25T05:15:40.915Z,61.23
2019-01-25T05:18:09.579Z,64.80
2019-01-25T05:20:37.618Z,59.93
2019-01-25T05:23:07.399Z,50.93
2019-01-25T05:25:35.580Z,55.93
2019-01-25T05:28:18.661Z,58.63
2019-01-25T05:31:06.928Z,53.63
2019-01-25T05:33:35.441Z,48.63
2019-01-25T05:36:05.252Z,50.17
2019-01-25T05:38:33.304Z,50.00
2019-01-25T05:41:01.561Z,58.50
2019-01-25T05:43:38.868Z,57.20
2019-01-25T05:46:07.014Z,51.63
2019-01-25T05:48:35.127Z,52.33
2019-01-25T05:51:05.464Z,61.63
2019-01-25T05:53:33.515Z,61.43
2019-01-25T05:56:01.645Z,59.43
2019-01-25T05:58:29.692Z,67.40
2019-01-25T06:00:57.790Z,58.00
2019-01-25T06:03:25.917Z,59.53
2019-01-25T06:06:01.268Z,57.67
2019-01-25T06:08:33.338Z,63.80
2019-01-25T06:11:09.822Z,61.43
2019-01-25T06:13:40.064Z,62.13
2019-01-25T06:16:08.344Z,58.50
2019-01-25T06:18:36.486Z,62.40
2019-01-25T06:21:05.753Z,57.93
2019-01-25T06:23:33.785Z,60.57
2019-01-25T06:26:02.401Z,59.70
2019-01-25T06:28:30.435Z,63.57
2019-01-25T06:30:58.547Z,62.57
2019-01-25T06:33:26.937Z,64.00
2019-01-25T06:35:55.029Z,62.67
2019-01-25T06:38:23.082Z,59.53
2019-01-25T06:40:51.116Z,61.87
2019-01-25T06:43:19.694Z,64.90
2019-01-25T06:45:47.818Z,65.10
2019-01-25T06:48:16.514Z,58.77
2019-01-25T06:50:44.594Z,60.97
2019-01-25T06:53:12.622Z,63.63
2019-01-25T06:55:40.817Z,66.03
2019-01-25T06:58:43.340Z,61.57
2019-01-25T07:01:27.954Z,63.00
2019-01-25T07:03:55.972Z,64.40
2019-01-25T07:06:24.008Z,60.73
2019-01-25T07:08:52.074Z,66.63
2019-01-25T07:11:20.279Z,64.23
2019-01-25T07:13:48.385Z,50.73
2019-01-25T07:16:16.504Z,53.17
2019-01-25T07:18:44.590Z,56.90
2019-01-25T07:21:12.687Z,51.10
2019-01-25T07:23:40.815Z,55.30
2019-01-25T07:26:08.968Z,57.17
2019-01-25T07:28:37.112Z,53.13
2019-01-25T07:31:05.350Z,53.83
2019-01-25T07:33:33.407Z,57.27
2019-01-25T07:36:01.781Z,58.40
2019-01-25T07:38:30.197Z,52.87
2019-01-25T07:40:58.324Z,51.47
2019-01-25T07:43:26.401Z,52.43
2019-01-25T07:45:54.499Z,54.03
2019-01-25T07:48:22.553Z,50.23
2019-01-25T07:50:50.764Z,51.50
2019-01-25T07:53:18.950Z,47.77
2019-01-25T07:55:47.765Z,47.53
2019-01-25T07:58:15.888Z,46.93
2019-01-25T08:00:44.190Z,50.03
2019-01-25T08:03:12.325Z,50.37
2019-01-25T08:05:41.131Z,53.80
2019-01-25T08:08:09.307Z,52.90
2019-01-25T08:10:37.511Z,53.17
2019-01-25T08:13:05.629Z,51.63
2019-01-25T08:15:33.902Z,49.90
2019-01-25T08:18:02.104Z,48.30
2019-01-25T08:20:30.150Z,50.73
2019-01-25T08:22:58.303Z,46.63
2019-01-25T08:25:26.455Z,51.33
2019-01-25T08:27:54.512Z,49.47
2019-01-25T08:30:22.760Z,49.43
2019-01-25T08:32:50.999Z,55.13
2019-01-25T08:35:20.069Z,52.10
2019-01-25T08:37:48.237Z,52.43
2019-01-25T08:40:16.596Z,50.23
2019-01-25T08:42:45.314Z,48.27
2019-01-25T08:45:14.133Z,44.03
2019-01-25T08:47:43.547Z,45.07
2019-01-25T08:50:15.761Z,49.70
2019-01-25T08:52:43.877Z,42.73
2019-01-25T08:55:12.927Z,47.03
2019-01-25T08:57:41.318Z,47.17
2019-01-25T09:00:16.766Z,42.50
2019-01-25T09:02:45.186Z,48.37
2019-01-25T09:05:13.521Z,44.40
2019-01-25T09:07:41.763Z,44.07
2019-01-25T09:10:13.558Z,43.43
2019-01-25T09:12:41.727Z,43.23
2019-01-25T09:15:15.302Z,42.33
2019-01-25T09:17:43.596Z,46.90
2019-01-25T09:20:15.610Z,43.03
2019-01-25T09:22:43.735Z,42.57
2019-01-25T09:25:11.961Z,44.93
2019-01-25T09:27:40.166Z,44.93
2019-01-25T09:30:12.584Z,41.53
2019-01-25T09:32:40.626Z,43.60
2019-01-25T09:35:09.083Z,42.30
2019-01-25T09:37:37.309Z,48.00
2019-01-25T09:40:08.986Z,45.17
2019-01-25T09:42:37.047Z,44.97
2019-01-25T09:45:06.836Z,44.97
2019-01-25T09:47:34.950Z,45.60
2019-01-25T09:50:04.890Z,45.73
2019-01-25T09:52:32.950Z,42.67
2019-01-25T09:55:01.238Z,49.37
2019-01-25T09:57:29.278Z,43.87
2019-01-25T09:59:57.435Z,46.63
2019-01-25T10:02:25.450Z,44.30
2019-01-25T10:04:54.069Z,39.77
2019-01-25T10:07:22.266Z,41.37
2019-01-25T10:09:50.287Z,39.67
2019-01-25T10:12:18.377Z,45.00
2019-01-25T10:14:46.424Z,44.47
2019-01-25T10:17:14.555Z,41.10
2019-01-25T10:19:42.693Z,45.53
2019-01-25T10:22:10.782Z,45.83
2019-01-25T10:24:38.954Z,46.70
2019-01-25T10:27:07.046Z,45.20
2019-01-25T10:29:35.043Z,44.27
2019-01-25T10:32:03.788Z,41.50
2019-01-25T10:34:31.790Z,43.50
2019-01-25T10:36:59.868Z,43.93
2019-01-25T10:39:27.995Z,41.60
2019-01-25T10:41:56.211Z,42.50
2019-01-25T10:44:24.451Z,44.13
2019-01-25T10:46:52.567Z,42.10
2019-01-25T10:49:20.625Z,44.40
2019-01-25T10:51:48.725Z,43.87
2019-01-25T10:54:16.748Z,44.23
2019-01-25T10:56:45.086Z,46.83
2019-01-25T10:59:13.112Z,41.03
2019-01-25T11:01:41.196Z,43.97
2019-01-25T11:04:11.481Z,46.20
2019-01-25T11:06:39.391Z,53.27
2019-01-25T11:09:08.931Z,47.70
2019-01-25T11:11:37.067Z,54.90
2019-01-25T11:14:05.122Z,54.33
2019-01-25T11:16:33.179Z,48.97
2019-01-25T11:19:02.518Z,55.10
2019-01-25T11:21:30.693Z,50.40
2019-01-25T11:23:58.794Z,52.87
2019-01-25T11:26:26.949Z,52.40
2019-01-25T11:28:55.235Z,53.20
2019-01-25T11:31:23.489Z,52.03
2019-01-25T11:33:51.727Z,54.97
2019-01-25T11:36:19.944Z,50.43
2019-01-25T11:38:48.054Z,54.20
2019-01-25T11:41:16.154Z,53.53
2019-01-25T11:43:44.460Z,54.67
2019-01-25T11:46:13.503Z,55.35
2019-01-25T11:48:41.514Z,53.85
2019-01-25T11:51:09.559Z,51.07
2019-01-25T11:53:37.776Z,52.37
2019-01-25T11:56:06.049Z,53.70
2019-01-25T11:58:34.232Z,57.50
2019-01-25T12:01:02.552Z,55.70
2019-01-25T12:03:30.662Z,58.47
2019-01-25T12:05:58.783Z,57.00
2019-01-25T12:08:26.906Z,54.23
2019-01-25T12:10:55.029Z,52.23
2019-01-25T12:13:23.936Z,53.33
2019-01-25T12:15:51.960Z,57.17
2019-01-25T12:18:20.445Z,53.30
2019-01-25T12:20:48.741Z,52.60
2019-01-25T12:23:16.884Z,56.97
2019-01-25T12:25:45.188Z,55.13
2019-01-25T12:28:13.336Z,57.43
2019-01-25T12:30:41.662Z,58.40
2019-01-25T12:33:10.114Z,56.40
2019-01-25T12:35:43.708Z,59.60
2019-01-25T12:38:12.159Z,60.27
2019-01-25T12:40:42.160Z,61.43
2019-01-25T12:43:10.255Z,61.20
2019-01-25T12:45:38.363Z,66.07
2019-01-25T12:48:06.818Z,67.93
2019-01-25T12:50:49.222Z,56.93
2019-01-25T12:53:20.576Z,63.13
2019-01-25T12:55:48.775Z,62.70
2019-01-25T12:58:17.258Z,72.00
2019-01-25T13:00:45.635Z,69.80
2019-01-25T13:03:13.675Z,75.00
2019-01-25T13:05:43.299Z,75.40
2019-01-25T13:08:11.718Z,79.33
2019-01-25T13:10:39.933Z,78.00
2019-01-25T13:13:08.087Z,81.13
2019-01-25T13:15:38.176Z,75.87
2019-01-25T13:18:06.945Z,81.00
2019-01-25T13:20:39.581Z,82.77
2019-01-25T13:23:05.918Z,83.63
2019-01-25T13:25:34.327Z,83.43
2019-01-25T13:28:02.425Z,78.30
2019-01-25T13:30:30.748Z,75.27
2019-01-25T13:32:59.311Z,76.37
2019-01-25T13:35:27.562Z,74.63
2019-01-25T13:37:56.076Z,78.87
2019-01-25T13:40:24.731Z,76.50
2019-01-25T13:42:53.388Z,87.13
2019-01-25T13:45:22.924Z,86.10
2019-01-25T13:47:52.810Z,81.07
2019-01-25T13:50:24.337Z,84.47
2019-01-25T13:52:52.496Z,81.47
2019-01-25T13:55:20.700Z,85.07
2019-01-25T13:57:48.732Z,87.60
2019-01-25T14:00:22.939Z,86.83
2019-01-25T14:02:52.716Z,83.70
2019-01-25T14:05:21.076Z,89.63
2019-01-25T14:07:49.134Z,85.07
2019-01-25T14:10:21.749Z,70.50
2019-01-25T14:12:50.282Z,88.97
2019-01-25T14:15:18.318Z,84.47
2019-01-25T14:17:46.408Z,84.10
2019-01-25T14:20:23.212Z,79.63
2019-01-25T14:22:48.012Z,83.07
2019-01-25T14:25:16.658Z,92.67
2019-01-25T14:27:44.675Z,88.43
2019-01-25T14:30:23.565Z,91.23
2019-01-25T14:32:52.623Z,92.37
2019-01-25T14:35:20.672Z,93.83
2019-01-25T14:37:48.963Z,98.57
2019-01-25T14:40:17.239Z,99.57
2019-01-25T14:42:45.248Z,98.67
2019-01-25T14:45:13.746Z,93.17
2019-01-25T14:47:41.787Z,110.27
2019-01-25T14:50:14.738Z,103.27
2019-01-25T14:52:43.485Z,101.03
2019-01-25T14:55:12.044Z,108.40
2019-01-25T14:57:40.096Z,103.17
2019-01-25T15:00:08.778Z,102.70
2019-01-25T15:02:37.330Z,105.30
2019-01-25T15:05:08.906Z,101.97
2019-01-25T15:07:36.958Z,105.43
2019-01-25T15:10:09.875Z,108.67
2019-01-25T15:12:38.289Z,110.10
2019-01-25T15:15:09.638Z,103.60
2019-01-25T15:17:37.904Z,105.60
2019-01-25T15:20:09.913Z,108.07
2019-01-25T15:22:37.930Z,106.17
2019-01-25T15:25:06.440Z,112.50
2019-01-25T15:27:34.662Z,107.13
2019-01-25T15:30:06.896Z,104.80
2019-01-25T15:32:34.966Z,100.53
2019-01-25T15:35:04.176Z,111.10
2019-01-25T15:37:32.366Z,101.23
2019-01-25T15:40:00.515Z,106.63
2019-01-25T15:42:28.567Z,101.17
2019-01-25T15:44:56.639Z,111.73
2019-01-25T15:47:24.721Z,106.73
2019-01-25T15:49:52.861Z,100.57
2019-01-25T15:52:20.931Z,92.63
2019-01-25T15:54:49.126Z,83.53
2019-01-25T15:57:17.250Z,90.47
2019-01-25T15:59:45.586Z,92.30
2019-01-25T16:02:13.714Z,86.67
2019-01-25T16:04:41.926Z,82.27
2019-01-25T16:07:10.100Z,80.07
2019-01-25T16:09:38.087Z,90.23
2019-01-25T16:12:06.155Z,78.97
2019-01-25T16:14:35.231Z,76.90
2019-01-25T16:17:05.796Z,82.47
2019-01-25T16:19:35.036Z,75.67
2019-01-25T16:22:05.187Z,82.30
2019-01-25T16:24:33.212Z,76.90
2019-01-25T16:27:01.477Z,75.97
2019-01-25T16:29:29.540Z,82.47
2019-01-25T16:31:57.597Z,77.73
2019-01-25T16:34:25.689Z,81.63
2019-01-25T16:36:53.727Z,91.30
2019-01-25T16:39:21.803Z,83.53
2019-01-25T16:41:49.931Z,83.27
2019-01-25T16:44:25.374Z,88.17
2019-01-25T16:46:47.985Z,85.20
2019-01-25T16:49:16.265Z,82.00
2019-01-25T16:51:44.349Z,80.50
2019-01-25T16:54:12.443Z,89.37
2019-01-25T16:56:40.498Z,81.33
2019-01-25T16:59:08.677Z,82.53
2019-01-25T17:01:36.775Z,84.77
2019-01-25T17:04:04.841Z,84.33
2019-01-25T17:06:33.101Z,83.60
2019-01-25T17:09:01.391Z,85.80
2019-01-25T17:11:29.890Z,83.60
2019-01-25T17:13:58.149Z,82.93
2019-01-25T17:16:26.399Z,83.80
2019-01-25T17:18:54.437Z,78.77
2019-01-25T17:21:22.483Z,84.63
2019-01-25T17:23:50.595Z,84.27
2019-01-25T17:26:18.916Z,75.70
2019-01-25T17:28:47.099Z,79.90
2019-01-25T17:31:15.270Z,76.90
2019-01-25T17:33:43.423Z,82.53
2019-01-25T17:36:11.549Z,77.63
2019-01-25T17:38:39.645Z,79.80
2019-01-25T17:41:07.767Z,80.77
2019-01-25T17:43:35.924Z,80.53
2019-01-25T17:46:04.419Z,79.20
2019-01-25T17:48:32.551Z,80.13
2019-01-25T17:51:00.627Z,77.00
2019-01-25T17:53:28.731Z,74.57
2019-01-25T17:55:56.970Z,83.00
2019-01-25T17:58:25.475Z,83.83
2019-01-25T18:00:56.781Z,78.67
2019-01-25T18:03:25.209Z,84.40
2019-01-25T18:05:54.230Z,78.27
2019-01-25T18:08:22.416Z,84.30
2019-01-25T18:10:50.687Z,77.47
2019-01-25T18:13:18.823Z,80.13
2019-01-25T18:15:46.917Z,80.93
2019-01-25T18:18:15.116Z,76.13
2019-01-25T18:20:43.357Z,81.20
2019-01-25T18:23:12.548Z,79.40
2019-01-25T18:26:15.578Z,87.37
2019-01-25T18:29:17.788Z,86.23
2019-01-25T18:31:45.856Z,73.30
2019-01-25T18:34:14.550Z,83.23
2019-01-25T18:36:42.726Z,82.80
2019-01-25T18:39:10.862Z,77.90
2019-01-25T18:41:38.873Z,81.70
2019-01-25T18:44:07.215Z,75.13
2019-01-25T18:46:35.208Z,81.43
2019-01-25T18:49:03.855Z,75.53
2019-01-25T18:51:31.935Z,79.93
2019-01-25T18:53:59.964Z,74.27
2019-01-25T18:56:28.059Z,77.47
2019-01-25T18:58:56.086Z,79.43
2019-01-25T19:01:24.243Z,82.90
2019-01-25T19:03:52.271Z,79.83
2019-01-25T19:06:20.346Z,80.80
2019-01-25T19:08:48.411Z,76.60
2019-01-25T19:11:16.633Z,80.33
2019-01-25T19:13:44.745Z,77.37
2019-01-25T19:16:12.882Z,80.33
2019-01-25T19:18:41.067Z,82.97
2019-01-25T19:21:09.191Z,72.60
2019-01-25T19:23:38.165Z,77.57
2019-01-25T19:26:06.353Z,78.07
2019-01-25T19:28:34.456Z,81.17
2019-01-25T19:31:02.442Z,79.30
2019-01-25T19:33:31.942Z,77.70
2019-01-25T19:36:00.000Z,79.47
2019-01-25T19:38:30.533Z,77.17
2019-01-25T19:40:58.647Z,83.00
2019-01-25T19:43:26.895Z,85.13
2019-01-25T19:45:54.955Z,76.73
2019-01-25T19:48:23.024Z,76.33
2019-01-25T19:50:51.091Z,84.10
2019-01-25T19:53:19.261Z,79.77
2019-01-25T19:55:47.375Z,74.90
2019-01-25T19:58:17.638Z,87.23
2019-01-25T20:00:46.110Z,85.77
2019-01-25T20:03:14.584Z,89.70
2019-01-25T20:05:42.737Z,81.17
2019-01-25T20:08:12.212Z,88.03
2019-01-25T20:10:40.215Z,89.17
2019-01-25T20:13:10.474Z,88.77
2019-01-25T20:15:38.660Z,91.10
2019-01-25T20:18:06.788Z,91.33
2019-01-25T20:20:35.746Z,86.50
2019-01-25T20:23:04.289Z,83.67
2019-01-25T20:25:33.766Z,91.40
2019-01-25T20:28:02.094Z,96.83
2019-01-25T20:30:31.820Z,94.13
2019-01-25T20:33:02.131Z,99.93
2019-01-25T20:35:40.681Z,101.63
2019-01-25T20:38:09.228Z,93.20
2019-01-25T20:40:37.893Z,96.97
2019-01-25T20:43:05.943Z,90.47
2019-01-25T20:45:36.790Z,105.17
2019-01-25T20:48:06.720Z,100.40
2019-01-25T20:50:36.186Z,106.93
2019-01-25T20:53:06.258Z,99.50
2019-01-25T20:55:34.349Z,101.20
2019-01-25T20:58:02.465Z,102.63
2019-01-25T21:00:33.677Z,101.13
2019-01-25T21:03:02.857Z,107.33
2019-01-25T21:05:31.783Z,107.80
2019-01-25T21:07:59.863Z,112.57
2019-01-25T21:10:28.194Z,116.13
2019-01-25T21:12:56.425Z,152.83
2019-01-25T21:15:25.858Z,133.83
2019-01-25T21:17:54.595Z,119.67
2019-01-25T21:20:30.495Z,120.07
2019-01-25T21:22:59.000Z,120.10
2019-01-25T21:25:27.109Z,114.20
2019-01-25T21:27:55.417Z,117.70
2019-01-25T21:30:27.307Z,123.13
2019-01-25T21:32:55.634Z,117.30
2019-01-25T21:35:23.733Z,132.03
2019-01-25T21:37:51.970Z,118.57
2019-01-25T21:40:23.884Z,120.50
2019-01-25T21:42:51.997Z,129.83
2019-01-25T21:45:22.498Z,133.50
2019-01-25T21:47:50.611Z,116.80
2019-01-25T21:50:22.118Z,132.13
2019-01-25T21:52:50.473Z,124.40
2019-01-25T21:55:18.747Z,135.73
2019-01-25T21:57:46.933Z,135.20
2019-01-25T22:00:20.121Z,132.37
2019-01-25T22:02:48.343Z,138.37
2019-01-25T22:05:17.261Z,127.53
2019-01-25T22:07:45.446Z,131.23
2019-01-25T22:10:17.945Z,132.53
2019-01-25T22:12:46.148Z,130.63
2019-01-25T22:15:15.940Z,129.00
2019-01-25T22:17:44.206Z,120.93
2019-01-25T22:20:25.558Z,134.00
2019-01-25T22:22:53.967Z,136.97
2019-01-25T22:25:24.331Z,122.43
2019-01-25T22:27:55.388Z,134.17
2019-01-25T22:30:24.876Z,124.97
2019-01-25T22:32:53.138Z,121.30
2019-01-25T22:35:24.059Z,125.90
2019-01-25T22:37:53.907Z,124.97
2019-01-25T22:40:27.680Z,113.73
2019-01-25T22:42:56.473Z,114.57
2019-01-25T22:45:27.287Z,113.60
2019-01-25T22:47:57.140Z,116.30
2019-01-25T22:50:28.363Z,123.20
2019-01-25T22:52:56.518Z,123.57
2019-01-25T22:55:26.150Z,130.27
2019-01-25T22:57:54.286Z,115.57
2019-01-25T23:01:00.873Z,123.43
2019-01-25T23:03:55.063Z,122.97
2019-01-25T23:06:44.141Z,110.50
2019-01-25T23:09:46.931Z,111.03
2019-01-25T23:12:14.953Z,124.27
2019-01-25T23:14:43.103Z,112.47
2019-01-25T23:17:11.655Z,119.13
2019-01-25T23:19:40.160Z,123.00
2019-01-25T23:22:08.243Z,119.87
2019-01-25T23:24:36.295Z,121.10
2019-01-25T23:27:04.520Z,121.40
2019-01-25T23:29:33.707Z,119.20
2019-01-25T23:32:01.741Z,102.23
2019-01-25T23:34:30.996Z,105.87
2019-01-25T23:36:59.382Z,112.13
2019-01-25T23:39:27.474Z,105.10
2019-01-25T23:41:55.712Z,98.50
2019-01-25T23:44:24.090Z,95.67
2019-01-25T23:46:52.303Z,84.37
2019-01-25T23:49:20.327Z,100.03
2019-01-25T23:51:48.335Z,120.27
2019-01-25T23:54:16.420Z,94.47
2019-01-25T23:56:44.443Z,90.23
2019-01-25T23:59:12.904Z,80.87
